Аэропорт: Уфа. Уфа

ICAO: UWUU

METAR:
2021-07-28 13:00:00
UWUU 281300Z 33006MPS 300V360 9999 BKN040 21/05 Q1013 R32L/0///60 NOSIG
METAR:
2021-07-28 10:56:00
TAF UWUU 281056Z 2812/2912 32005G11MPS 9999 BKN040 TX25/2909Z TN07/2901Z TEMPO 2812/2815 35009G14MPS BECMG 2815/2818 23003G10MPS TEMPO 2822/2903 VRB01MPS 6000 SCT016 TEMPO 2903/2912 26006MPS